Terminal Aerodrome Forecast
Issued by NWS

Home | Current Version | Previous Version | Text Only | Print | Product List | Glossary On
Versions: 1 2 3 4 5 6 7 8 9 10 11 12 13 14 15
000
FTUS45 KMSO 191127
TAFSMN
TAF
KSMN 191127Z 1912/2012 VRB04KT P6SM VCSH BKN050 OVC090
     FM191800 21007KT P6SM SCT070
     FM192200 22010KT P6SM VCSH BKN080
      AMD LTD TO CLD VIS AND WIND=

USA.gov is the U.S. government's official web portal to all federal, state and local government web resources and services.